Terminal Aerodrome Forecast
Issued by NWS Cleveland, OH

Home | Current Version | Previous Version | Graphics & Text | Print | Product List | Glossary On
Versions: 1 2 3 4 5 6 7 8 9 10 11 12 13
000
FTUS41 KCLE 281100
TAFERI
TAF
KERI 281140Z 2812/2912 36008KT P6SM SKC
     FM281300 34006KT P6SM BKN030
     FM281500 34006KT P6SM BKN035
     FM281800 33008KT P6SM SCT250
     FM290100 14005KT P6SM BKN250=

USA.gov is the U.S. government's official web portal to all federal, state and local government web resources and services.